Time;durP1;ratioP1;P1;durP2;ratioP2;P2;SDS_P1;SDS_P2;PMS_P1;PMS_P2;Temp;Humidity;BMP_temperature;BMP_pressure;BME280_temperature;BME280_humidity;BME280_pressure;Samples;Min_cycle;Max_cycle;Signal;HPM_P1;HPM_P2
2023/04/23 00:01:16;;;;;;;11.23;10.17;;;;;;;7.06;100.00;11850.44;5114533;28;20188;-62
2023/04/23 00:03:44;;;;;;;19.77;10.60;;;;;;;7.05;100.00;10893.75;5114429;28;20274;-61
2023/04/23 00:06:11;;;;;;;19.73;10.77;;;;;;;6.73;100.00;11842.59;5114099;28;20194;-61
2023/04/23 00:08:40;;;;;;;21.97;13.60;;;;;;;6.91;100.00;10890.56;5114116;28;20179;-61
2023/04/23 00:11:07;;;;;;;26.83;10.43;;;;;;;6.84;100.00;12163.94;5114351;28;20668;-62
2023/04/23 00:13:35;;;;;;;14.30;9.07;;;;;;;6.68;100.00;14072.66;5114137;28;20248;-60
2023/04/23 00:16:05;;;;;;;11.63;8.57;;;;;;;6.43;100.00;14384.53;5113911;28;20187;-60
2023/04/23 00:18:31;;;;;;;14.70;8.63;;;;;;;6.31;100.00;13425.22;5114412;28;20219;-60
2023/04/23 00:20:58;;;;;;;10.07;8.67;;;;;;;6.20;100.00;12466.53;5113854;28;20274;-61
2023/04/23 00:23:25;;;;;;;14.27;9.70;;;;;;;6.29;100.00;10558.22;5114033;28;20183;-60
2023/04/23 00:25:52;;;;;;;10.03;8.97;;;;;;;6.46;100.00;10880.47;5113716;28;20188;-61
2023/04/23 00:28:19;;;;;;;16.00;9.70;;;;;;;6.46;100.00;10562.03;5114057;28;20286;-61
2023/04/23 00:30:46;;;;;;;21.37;10.93;;;;;;;6.54;100.00;10245.34;5113915;28;20561;-62
2023/04/23 00:33:15;;;;;;;17.10;10.53;;;;;;;6.67;100.00;9929.72;5114193;28;20619;-60
2023/04/23 00:35:41;;;;;;;18.33;12.17;;;;;;;6.49;100.00;10562.69;5113556;28;20191;-60
2023/04/23 00:38:08;;;;;;;16.50;12.07;;;;;;;6.55;100.00;9608.66;5113749;28;20214;-61
2023/04/23 00:40:36;;;;;;;19.00;10.80;;;;;;;6.55;100.00;9608.75;5113809;28;20554;-60
2023/04/23 00:43:03;;;;;;;18.37;9.83;;;;;;;6.67;100.00;9611.25;5113415;28;20180;-61
2023/04/23 00:45:30;;;;;;;13.63;9.80;;;;;;;6.69;100.00;10248.63;5113418;28;20215;-61
2023/04/23 00:47:58;;;;;;;17.33;10.00;;;;;;;6.69;100.00;10885.63;5113651;28;20183;-61
2023/04/23 00:50:26;;;;;;;20.13;10.37;;;;;;;6.44;100.00;11835.50;5113571;28;20587;-60
2023/04/23 00:52:53;;;;;;;16.17;10.60;;;;;;;6.39;100.00;10878.97;5113430;28;20192;-60
2023/04/23 00:55:20;;;;;;;16.03;10.87;;;;;;;6.28;100.00;11194.72;5113447;28;20622;-61
2023/04/23 00:57:48;;;;;;;15.07;10.60;;;;;;;6.12;100.00;10236.19;5113144;28;20180;-60
2023/04/23 01:00:16;;;;;;;27.80;10.80;;;;;;;6.16;100.00;8964.34;5113063;28;20194;-60
2023/04/23 01:02:46;;;;;;;16.13;10.10;;;;;;;6.37;100.00;8968.50;5113423;28;20183;-61
2023/04/23 01:05:16;;;;;;;15.17;10.80;;;;;;;6.20;100.00;9283.38;5113138;28;20193;-61
2023/04/23 01:07:45;;;;;;;13.50;9.77;;;;;;;6.34;100.00;9922.66;5113326;28;20188;-61
2023/04/23 01:10:12;;;;;;;11.90;10.00;;;;;;;6.23;100.00;9920.44;5112853;28;20180;-61
2023/04/23 01:12:39;;;;;;;16.63;10.37;;;;;;;6.46;100.00;10243.63;5113230;28;20184;-61
2023/04/23 01:15:07;;;;;;;28.60;14.20;;;;;;;6.62;100.00;8973.34;5112522;28;20353;-61
2023/04/23 01:17:34;;;;;;;21.13;15.90;;;;;;;6.72;100.00;7065.50;5113269;28;20647;-62
2023/04/23 01:20:01;;;;;;;33.57;15.97;;;;;;;6.77;100.00;6429.81;5113173;28;20207;-61
2023/04/23 01:22:30;;;;;;;23.10;13.17;;;;;;;6.64;100.00;8337.16;5113065;28;20536;-62
2023/04/23 01:24:57;;;;;;;21.07;11.43;;;;;;;6.30;100.00;9603.56;5112786;28;20190;-61
2023/04/23 01:27:25;;;;;;;17.03;12.20;;;;;;;6.34;100.00;8649.69;5112854;28;20187;-61
2023/04/23 01:29:52;;;;;;;17.47;11.83;;;;;;;6.30;100.00;9285.31;5112690;28;20237;-61
2023/04/23 01:32:20;;;;;;;13.57;11.03;;;;;;;6.08;100.00;10871.78;5113031;28;20193;-61
2023/04/23 01:34:48;;;;;;;20.10;11.40;;;;;;;6.16;100.00;12465.50;5112100;28;20184;-60
2023/04/23 01:37:16;;;;;;;16.40;11.47;;;;;;;6.22;100.00;11511.72;5112504;28;20183;-62
2023/04/23 01:39:44;;;;;;;48.10;21.97;;;;;;;6.33;100.00;10240.88;5112298;28;20207;-61
2023/04/23 01:42:11;;;;;;;54.37;25.43;;;;;;;6.17;100.00;7374.31;5112941;28;20640;-62
2023/04/23 01:44:38;;;;;;;45.93;25.13;;;;;;;6.55;100.00;4836.44;5112643;28;20557;-61
2023/04/23 01:47:05;;;;;;;34.27;19.20;;;;;;;6.29;100.00;5468.72;5112190;28;20187;-60
2023/04/23 01:49:32;;;;;;;25.43;16.27;;;;;;;6.06;100.00;6736.66;5112407;28;20195;-60
2023/04/23 01:51:59;;;;;;;32.03;17.80;;;;;;;6.20;100.00;5149.75;5112418;28;20645;-61
2023/04/23 01:54:26;;;;;;;31.80;18.67;;;;;;;6.33;100.00;6741.00;5112135;28;20183;-61
2023/04/23 01:56:54;;;;;;;30.93;16.30;;;;;;;6.26;100.00;7057.84;5112448;28;20183;-61
2023/04/23 01:59:22;;;;;;;26.27;15.00;;;;;;;6.21;100.00;9283.59;5111996;28;20207;-61
2023/04/23 02:01:50;;;;;;;19.00;14.60;;;;;;;6.19;100.00;10874.41;5112024;28;20180;-61
2023/04/23 02:04:17;;;;;;;27.10;15.77;;;;;;;5.89;100.00;10231.28;5112012;28;20195;-61
2023/04/23 02:06:48;;;;;;;28.50;17.23;;;;;;;6.21;100.00;7693.09;5112203;28;20183;-61
2023/04/23 02:09:15;;;;;;;41.37;22.90;;;;;;;6.38;100.00;7377.91;5112339;28;20176;-61
2023/04/23 02:11:42;;;;;;;42.90;23.70;;;;;;;6.27;100.00;6422.09;5112340;28;20649;-60
2023/04/23 02:14:11;;;;;;;44.83;25.20;;;;;;;6.69;100.00;3884.38;5111869;28;20242;-60
2023/04/23 02:16:38;;;;;;;44.20;21.03;;;;;;;6.63;100.00;3248.06;5111991;28;20180;-61
2023/04/23 02:19:05;;;;;;;42.20;22.10;;;;;;;6.56;100.00;7062.75;5112307;28;20691;-61
2023/04/23 02:21:32;;;;;;;34.73;19.33;;;;;;;6.38;100.00;10241.88;5112057;28;20240;-61
2023/04/23 02:23:59;;;;;;;36.97;19.63;;;;;;;6.49;100.00;10881.16;5111855;28;20187;-60
2023/04/23 02:26:27;;;;;;;33.63;19.00;;;;;;;6.30;100.00;9603.56;5111699;28;20199;-61
2023/04/23 02:28:54;;;;;;;35.87;15.53;;;;;;;5.83;100.00;10866.16;5112087;28;20199;-60
2023/04/23 02:31:23;;;;;;;27.33;14.77;;;;;;;6.10;100.00;11190.63;5111997;28;20522;-61
2023/04/23 02:33:50;;;;;;;14.37;12.30;;;;;;;6.09;100.00;12782.16;5111970;28;20179;-60
2023/04/23 02:36:16;;;;;;;23.83;14.90;;;;;;;6.10;100.00;11827.19;5111951;28;20237;-61
2023/04/23 02:38:44;;;;;;;27.37;16.00;;;;;;;6.18;100.00;9282.88;5111806;28;20210;-61
2023/04/23 02:41:11;;;;;;;27.37;16.70;;;;;;;5.93;100.00;8642.00;5111694;28;20184;-61
2023/04/23 02:43:38;;;;;;;28.30;15.67;;;;;;;5.85;100.00;8322.56;5112065;28;20188;-61
2023/04/23 02:46:08;;;;;;;33.73;16.50;;;;;;;5.82;100.00;8322.00;5111832;28;20192;-61
2023/04/23 02:48:39;;;;;;;22.10;15.67;;;;;;;5.77;100.00;7367.53;5115102;28;20195;-61
2023/04/23 02:51:07;;;;;;;20.37;14.03;;;;;;;5.67;100.00;5777.72;5115519;28;20278;-60
2023/04/23 02:53:34;;;;;;;31.73;14.27;;;;;;;5.68;100.00;8637.22;5115849;28;20253;-62
2023/04/23 02:56:01;;;;;;;18.43;12.33;;;;;;;5.45;100.00;10857.59;5115529;28;20190;-61
2023/04/23 02:58:28;;;;;;;18.47;11.20;;;;;;;5.29;100.00;7359.50;5115304;28;20270;-60
2023/04/23 03:00:56;;;;;;;17.73;11.17;;;;;;;5.16;100.00;7674.75;5115346;28;20206;-61
2023/04/23 03:03:25;;;;;;;14.80;11.63;;;;;;;5.37;100.00;7678.38;5115401;28;20191;-61
2023/04/23 03:05:54;;;;;;;14.57;11.60;;;;;;;5.53;100.00;7998.88;5115688;28;20180;-61
2023/04/23 03:08:20;;;;;;;16.63;12.30;;;;;;;5.55;100.00;9270.31;5115281;28;20180;-60
2023/04/23 03:10:47;;;;;;;15.47;12.00;;;;;;;5.21;100.00;9263.44;5115303;28;20187;-61
2023/04/23 03:13:14;;;;;;;15.47;11.57;;;;;;;5.53;100.00;9587.75;5115313;28;20197;-60
2023/04/23 03:15:41;;;;;;;17.00;12.30;;;;;;;5.39;100.00;8631.66;5115075;28;20253;-61
2023/04/23 03:18:08;;;;;;;60.97;24.93;;;;;;;5.72;100.00;8320.13;5115554;28;20566;-61
2023/04/23 03:20:35;;;;;;;50.60;23.17;;;;;;;5.88;100.00;7687.34;5115349;28;20666;-61
2023/04/23 03:23:05;;;;;;;26.00;16.03;;;;;;;5.87;100.00;8322.94;5114997;28;20183;-61
2023/04/23 03:25:32;;;;;;;22.70;13.47;;;;;;;5.95;100.00;8960.28;5114949;28;20195;-61
2023/04/23 03:27:59;;;;;;;37.23;19.83;;;;;;;5.96;100.00;8960.59;5114938;28;20180;-61
2023/04/23 03:30:26;;;;;;;40.83;17.63;;;;;;;6.06;100.00;9598.56;5114938;28;20381;-62
2023/04/23 03:32:55;;;;;;;28.67;18.63;;;;;;;5.76;100.00;9910.41;5114654;28;20183;-60
2023/04/23 03:35:22;;;;;;;47.47;25.30;;;;;;;6.07;100.00;8008.59;5114792;28;20197;-63
2023/04/23 03:37:49;;;;;;;42.80;22.30;;;;;;;5.87;100.00;8322.94;5114637;28;20190;-61
2023/04/23 03:40:17;;;;;;;39.33;21.43;;;;;;;6.29;100.00;6740.34;5114922;28;20732;-62
2023/04/23 03:42:44;;;;;;;28.60;15.93;;;;;;;6.11;100.00;7055.34;5114676;28;20632;-61
2023/04/23 03:45:12;;;;;;;21.40;13.47;;;;;;;6.35;100.00;6105.44;5115034;28;20577;-61
2023/04/23 03:47:39;;;;;;;32.23;17.40;;;;;;;6.59;100.00;5154.94;5114794;28;20209;-61
2023/04/23 03:50:07;;;;;;;38.67;20.30;;;;;;;6.72;100.00;2931.09;5114764;28;20799;-60
2023/04/23 03:52:35;;;;;;;35.10;20.83;;;;;;;6.99;100.00;3887.75;5114499;28;20194;-60
2023/04/23 03:55:02;;;;;;;47.30;25.97;;;;;;;7.02;100.00;1980.25;5114416;28;20192;-61
2023/04/23 03:57:32;;;;;;;44.60;25.00;;;;;;;7.63;100.00;76.59;5114186;28;20183;-60
2023/04/23 03:59:59;;;;;;;30.43;21.77;;;;;;;7.72;100.00;2622.59;5114159;28;20204;-61
2023/04/23 04:02:26;;;;;;;39.57;25.43;;;;;;;8.16;100.00;4219.78;5114189;28;20188;-60
2023/04/23 04:04:54;;;;;;;57.90;33.33;;;;;;;8.32;100.00;5178.09;5114425;28;20630;-62
2023/04/23 04:07:20;;;;;;;47.30;33.93;;;;;;;8.61;100.00;9651.31;5114129;28;20183;-61
2023/04/23 04:09:48;;;;;;;62.27;34.53;;;;;;;8.81;100.00;15092.13;5096022;28;20243;-60
2023/04/23 04:12:16;;;;;;;52.37;33.57;;;;;;;9.07;100.00;19585.88;5114029;28;20183;-62
2023/04/23 04:14:44;;;;;;;51.07;33.23;;;;;;;9.41;100.00;25378.44;5113804;28;20231;-62
2023/04/23 04:17:14;;;;;;;50.80;33.97;;;;;;;9.76;100.00;27002.78;5113893;28;20259;-60
2023/04/23 04:19:41;;;;;;;52.77;34.50;;;;;;;9.70;100.00;39568.97;5114214;28;20574;-62
2023/04/23 04:22:08;;;;;;;56.33;34.60;;;;;;;9.74;100.00;45713.25;5113859;28;20554;-61
2023/04/23 04:24:35;;;;;;;61.13;34.60;;;;;;;10.02;100.00;50594.16;5114046;28;20188;-61
2023/04/23 04:27:03;;;;;;;55.80;35.00;;;;;;;10.34;100.00;60689.66;5113641;28;20183;-62
2023/04/23 04:29:30;;;;;;;62.77;34.57;;;;;;;10.54;100.00;77018.59;5113975;28;20191;-62
2023/04/23 04:32:00;;;;;;;56.20;36.53;;;;;;;10.74;100.00;94749.53;5113592;28;20187;-61
2023/04/23 04:34:27;;;;;;;54.40;34.93;;;;;;;11.19;100.00;117925.19;5113607;28;20730;-62
2023/04/23 04:36:53;;;;;;;61.30;35.80;;;;;;;11.18;100.00;145129.25;5113477;28;20184;-62
2023/04/23 04:39:20;;;;;;;59.10;36.00;;;;;;;12.03;100.00;149062.63;5113707;28;20634;-62
2023/04/23 04:41:48;;;;;;;53.43;36.90;;;;;;;12.30;100.00;149131.00;5113661;28;20190;-61
2023/04/23 04:44:20;;;;;;;49.13;36.87;;;;;;;12.38;100.00;149149.97;5113670;28;20638;-61
2023/04/23 04:46:46;;;;;;;64.17;43.77;;;;;;;12.34;100.00;149142.41;5113603;28;20187;-61
2023/04/23 04:49:17;;;;;;;78.53;52.30;;;;;;;12.51;100.00;149182.88;5113350;28;20184;-61
2023/04/23 04:51:44;;;;;;;86.27;56.53;;;;;;;12.93;100.00;149289.25;5113540;28;20190;-62
2023/04/23 04:54:10;;;;;;;105.60;69.03;;;;;;;13.24;100.00;149366.53;5113490;28;20549;-61
2023/04/23 04:56:37;;;;;;;116.13;74.07;;;;;;;12.85;100.00;149269.00;5113424;28;20190;-61
2023/04/23 04:59:04;;;;;;;119.03;79.70;;;;;;;13.04;100.00;149317.09;5113017;28;20194;-61
2023/04/23 05:01:32;;;;;;;110.60;74.77;;;;;;;13.03;100.00;149314.53;5112957;28;20195;-61
2023/04/23 05:03:59;;;;;;;102.80;68.10;;;;;;;12.98;100.00;149300.66;5112992;28;20187;-61
2023/04/23 05:06:28;;;;;;;84.20;54.77;;;;;;;13.31;100.00;149384.28;5113039;28;20194;-62
2023/04/23 05:08:55;;;;;;;67.57;45.47;;;;;;;13.44;100.00;149417.22;5112753;28;20179;-62
2023/04/23 05:11:22;;;;;;;58.13;39.93;;;;;;;13.86;100.00;149522.41;5112235;28;20184;-62
2023/04/23 05:13:49;;;;;;;51.43;37.53;;;;;;;14.10;100.00;149583.22;5112680;28;20246;-61
2023/04/23 05:16:16;;;;;;;48.70;35.27;;;;;;;14.10;100.00;149581.94;5113137;28;20183;-62
2023/04/23 05:18:43;;;;;;;46.40;36.13;;;;;;;14.12;100.00;149587.03;5113038;28;20253;-62
2023/04/23 05:21:10;;;;;;;48.17;35.50;;;;;;;13.80;100.00;149505.88;5112946;28;20207;-62
2023/04/23 05:23:38;;;;;;;58.60;35.13;;;;;;;14.56;100.00;149697.34;5112751;28;20195;-61
2023/04/23 05:26:05;;;;;;;49.23;34.13;;;;;;;15.28;100.00;149877.44;5112574;28;20272;-62
2023/04/23 05:28:32;;;;;;;54.17;33.77;;;;;;;15.18;100.00;149853.38;5112605;28;20189;-61
2023/04/23 05:30:59;;;;;;;46.37;33.73;;;;;;;15.70;100.00;149984.09;5112502;28;20180;-62
2023/04/23 05:33:27;;;;;;;48.70;34.37;;;;;;;16.17;100.00;150102.13;5112822;28;20199;-61
2023/04/23 05:35:53;;;;;;;51.57;37.83;;;;;;;17.16;100.00;150349.84;5112371;28;20557;-62
2023/04/23 05:38:20;;;;;;;51.43;35.93;;;;;;;18.01;100.00;150563.41;5112823;28;20179;-61
2023/04/23 05:40:49;;;;;;;56.30;38.50;;;;;;;19.65;100.00;150976.88;5112249;28;20214;-62
2023/04/23 05:43:15;;;;;;;52.83;40.27;;;;;;;20.53;100.00;151198.50;5112547;28;20191;-62
2023/04/23 05:45:43;;;;;;;65.37;42.53;;;;;;;20.93;100.00;151299.09;5112327;28;20188;-61
2023/04/23 05:48:10;;;;;;;55.77;44.53;;;;;;;20.26;100.00;151129.66;5112390;28;20207;-62
2023/04/23 05:50:36;;;;;;;64.40;48.00;;;;;;;19.93;100.00;151048.19;5112424;28;20180;-62
2023/04/23 05:53:03;;;;;;;76.00;50.17;;;;;;;18.63;100.00;150721.13;5112357;28;20187;-62
2023/04/23 05:55:30;;;;;;;74.57;50.83;;;;;;;19.14;100.00;150848.31;5112202;28;20190;-62
2023/04/23 05:57:58;;;;;;;67.57;48.37;;;;;;;20.40;100.00;151165.38;5112375;28;20187;-61
2023/04/23 06:00:25;;;;;;;61.63;45.10;;;;;;;22.04;96.88;151579.56;5112027;28;20207;-62
2023/04/23 06:02:52;;;;;;;60.70;45.07;;;;;;;21.85;99.61;151531.09;5112268;28;20194;-61
2023/04/23 06:05:19;;;;;;;111.37;44.43;;;;;;;23.40;82.43;151921.44;5112202;28;20187;-62
2023/04/23 06:07:46;;;;;;;65.68;43.92;;;;;;;23.38;81.13;151916.38;5112226;28;20653;-62
2023/04/23 06:10:13;;;;;;;63.88;43.72;;;;;;;23.37;78.83;151915.09;5112260;28;20276;-62
2023/04/23 06:12:41;;;;;;;55.50;40.78;;;;;;;23.30;77.69;151895.97;5111835;28;20183;-62
2023/04/23 06:15:10;;;;;;;42.92;37.10;;;;;;;23.02;76.53;151827.03;5111705;28;20241;-62
2023/04/23 06:17:37;;;;;;;42.37;34.70;;;;;;;23.02;75.73;151827.03;5112184;28;20569;-62
2023/04/23 06:20:05;;;;;;;49.07;37.83;;;;;;;21.71;88.80;151496.69;5112131;28;20203;-62
2023/04/23 06:22:32;;;;;;;43.60;36.47;;;;;;;20.54;100.00;151199.78;5117841;28;20241;-63
2023/04/23 06:24:59;;;;;;;49.07;33.63;;;;;;;20.58;100.00;151209.97;5118876;28;20654;-62
2023/04/23 06:27:26;;;;;;;50.50;36.70;;;;;;;21.13;100.00;151350.09;5118965;28;20553;-62
2023/04/23 06:29:53;;;;;;;47.63;35.97;;;;;;;21.79;100.00;151515.78;5118486;28;20331;-62
2023/04/23 06:32:22;;;;;;;60.23;40.17;;;;;;;22.07;99.69;151587.22;5118473;28;20191;-62
2023/04/23 06:34:49;;;;;;;58.37;39.43;;;;;;;21.32;100.00;151397.25;5118641;28;20243;-62
2023/04/23 06:37:16;;;;;;;51.73;40.07;;;;;;;20.55;100.00;151203.56;5118567;28;20289;-62
2023/04/23 06:39:43;;;;;;;54.03;39.70;;;;;;;19.06;100.00;150829.25;5118614;28;20196;-62
2023/04/23 06:42:10;;;;;;;49.30;37.03;;;;;;;18.47;100.00;150680.38;5118417;28;20187;-62
2023/04/23 06:44:36;;;;;;;44.53;34.23;;;;;;;18.38;100.00;150656.19;5118865;28;20187;-62
2023/04/23 06:47:03;;;;;;;40.77;32.50;;;;;;;18.70;100.00;150737.69;5118673;28;20191;-63
2023/04/23 06:49:32;;;;;;;39.37;29.70;;;;;;;18.87;100.00;150779.63;5100142;28;20183;-62
2023/04/23 06:51:59;;;;;;;28.20;22.80;;;;;;;18.50;100.00;150686.75;5118238;28;20194;-62
2023/04/23 06:54:26;;;;;;;28.27;23.07;;;;;;;18.88;100.00;150782.19;5118688;28;20214;-63
2023/04/23 06:56:52;;;;;;;26.37;21.77;;;;;;;18.59;100.00;150709.66;5118640;28;20277;-61
2023/04/23 06:59:19;;;;;;;18.23;16.73;;;;;;;18.94;100.00;150797.44;5118624;28;20565;-63
2023/04/23 07:01:46;;;;;;;18.07;16.37;;;;;;;19.25;100.00;150876.34;5118150;28;20199;-62
2023/04/23 07:04:13;;;;;;;28.63;17.07;;;;;;;19.40;100.00;150913.22;5118533;28;20294;-61
2023/04/23 07:06:41;;;;;;;27.30;17.10;;;;;;;19.41;100.00;150915.75;5118604;28;20190;-63
2023/04/23 07:09:08;;;;;;;17.13;15.80;;;;;;;19.44;100.00;150923.44;5118588;28;20683;-63
2023/04/23 07:11:35;;;;;;;17.87;14.93;;;;;;;19.31;100.00;150891.56;5118252;28;20216;-61
2023/04/23 07:14:03;;;;;;;14.37;13.00;;;;;;;19.67;100.00;150982.00;5118243;28;20255;-62
2023/04/23 07:16:32;;;;;;;18.63;12.37;;;;;;;19.64;100.00;150973.09;5118469;28;20257;-63
2023/04/23 07:19:00;;;;;;;14.90;13.33;;;;;;;19.76;100.00;151004.91;5118437;28;20252;-62
2023/04/23 07:21:28;;;;;;;17.50;13.80;;;;;;;19.97;100.00;151057.09;5118134;28;20203;-62
2023/04/23 07:23:58;;;;;;;15.97;13.37;;;;;;;20.03;100.00;151072.34;5118444;28;20183;-62
2023/04/23 07:26:26;;;;;;;14.93;13.57;;;;;;;20.07;100.00;151082.59;5118451;28;20626;-63
2023/04/23 07:28:53;;;;;;;18.07;11.40;;;;;;;20.24;100.00;151125.81;5118316;28;20183;-62
2023/04/23 07:31:20;;;;;;;11.37;10.10;;;;;;;19.98;100.00;151060.94;5118073;28;20183;-62
2023/04/23 07:33:47;;;;;;;14.77;9.97;;;;;;;20.31;100.00;151142.47;5114771;28;20183;-62
2023/04/23 07:36:13;;;;;;;16.27;8.80;;;;;;;20.17;100.00;151106.75;5114828;28;20183;-62
2023/04/23 07:38:40;;;;;;;10.07;9.13;;;;;;;20.03;100.00;151072.34;5115055;28;20192;-62
2023/04/23 07:41:09;;;;;;;8.23;5.80;;;;;;;20.41;92.40;151169.19;5114951;28;20253;-62
2023/04/23 07:43:36;;;;;;;12.33;5.57;;;;;;;20.23;85.14;151123.31;5114892;28;20282;-62
2023/04/23 07:46:03;;;;;;;6.37;5.47;;;;;;;20.50;85.43;151190.81;5114490;28;20578;-62
2023/04/23 07:48:30;;;;;;;7.93;5.33;;;;;;;20.48;89.69;151185.75;5114546;28;20187;-62
2023/04/23 07:50:58;;;;;;;6.23;5.27;;;;;;;20.41;86.74;151169.19;5114441;28;20180;-62
2023/04/23 07:53:25;;;;;;;8.40;5.63;;;;;;;20.69;82.12;151237.97;5114569;28;20175;-62
2023/04/23 07:55:51;;;;;;;9.10;5.87;;;;;;;20.69;81.11;151239.25;5114737;28;20594;-62
2023/04/23 07:58:20;;;;;;;6.07;5.57;;;;;;;20.54;83.08;151199.78;5114421;28;20190;-63
2023/04/23 08:00:47;;;;;;;8.70;5.97;;;;;;;20.75;89.09;151253.28;5114530;28;20215;-62
2023/04/23 08:03:14;;;;;;;7.83;5.10;;;;;;;21.07;78.46;151333.50;5114242;28;20202;-61
2023/04/23 08:05:41;;;;;;;11.47;4.97;;;;;;;21.06;73.87;151332.22;5114296;28;20191;-63
2023/04/23 08:08:08;;;;;;;5.83;5.37;;;;;;;20.98;76.06;151313.13;5114487;28;20191;-62
2023/04/23 08:10:35;;;;;;;5.73;4.97;;;;;;;21.08;73.00;151337.34;5114621;28;20634;-62
2023/04/23 08:13:02;;;;;;;6.97;5.60;;;;;;;20.84;73.03;151276.16;5114280;28;20203;-63
2023/04/23 08:15:33;;;;;;;7.60;6.03;;;;;;;20.91;75.33;151294.03;5114157;28;20270;-63
2023/04/23 08:18:00;;;;;;;6.80;5.97;;;;;;;21.09;74.38;151339.84;5114105;28;20184;-62
2023/04/23 08:20:27;;;;;;;7.77;5.43;;;;;;;20.82;70.93;151272.38;5114201;28;20581;-62
2023/04/23 08:22:55;;;;;;;4.80;4.40;;;;;;;20.66;72.06;151230.34;5114203;28;20190;-61
2023/04/23 08:25:22;;;;;;;5.23;4.90;;;;;;;20.58;71.96;151209.97;5113913;28;20184;-62
2023/04/23 08:27:49;;;;;;;8.87;5.00;;;;;;;20.25;76.42;151127.09;5114155;28;20191;-62
2023/04/23 08:30:16;;;;;;;6.80;4.73;;;;;;;20.37;77.54;151159.00;5114084;28;20274;-62
2023/04/23 08:32:44;;;;;;;7.23;5.30;;;;;;;20.41;77.43;151169.19;5113640;28;20183;-62
2023/04/23 08:35:11;;;;;;;6.20;4.60;;;;;;;20.53;75.73;151198.50;5114095;28;20649;-62
2023/04/23 08:37:39;;;;;;;5.47;4.77;;;;;;;20.24;73.57;151125.81;5113905;28;20367;-63
2023/04/23 08:40:08;;;;;;;5.23;4.63;;;;;;;19.40;82.69;150913.22;5113502;28;20183;-62
2023/04/23 08:42:40;;;;;;;9.00;4.83;;;;;;;19.68;81.36;150983.28;5095580;28;20203;-62
2023/04/23 08:45:08;;;;;;;8.63;4.27;;;;;;;20.07;78.49;151083.81;5112296;28;20187;-62
2023/04/23 08:47:35;;;;;;;5.00;4.57;;;;;;;20.13;76.07;151097.84;5113875;28;20553;-62
2023/04/23 08:50:05;;;;;;;12.67;4.57;;;;;;;20.09;74.70;151087.66;5113836;28;20620;-62
2023/04/23 08:52:34;;;;;;;4.03;3.83;;;;;;;19.98;73.89;151059.66;5113349;28;20627;-63
2023/04/23 08:55:04;;;;;;;4.80;4.50;;;;;;;19.84;78.12;151024.00;5113169;28;20198;-62
2023/04/23 08:57:31;;;;;;;7.20;4.63;;;;;;;19.61;80.49;150968.00;5113257;28;20183;-62
2023/04/23 08:59:59;;;;;;;6.97;4.43;;;;;;;19.57;80.02;150956.53;5113187;28;20233;-62
2023/04/23 09:02:27;;;;;;;13.90;4.80;;;;;;;19.23;80.08;150869.94;5113633;28;20207;-63
2023/04/23 09:04:54;;;;;;;8.03;5.10;;;;;;;19.36;82.28;150903.03;5113083;28;20278;-62
2023/04/23 09:07:23;;;;;;;8.43;5.00;;;;;;;19.08;85.75;150834.34;5113011;28;20187;-62
2023/04/23 09:09:50;;;;;;;8.70;4.73;;;;;;;19.01;81.52;150815.28;5113241;28;20191;-62
2023/04/23 09:12:17;;;;;;;7.10;4.90;;;;;;;19.15;85.17;150852.16;5112980;28;20180;-62
2023/04/23 09:14:44;;;;;;;5.27;4.97;;;;;;;18.79;82.42;150759.28;5112848;28;20584;-62
2023/04/23 09:17:11;;;;;;;4.33;4.00;;;;;;;19.18;78.09;150859.75;5113240;28;20187;-61
2023/04/23 09:19:39;;;;;;;4.57;4.17;;;;;;;19.13;78.16;150845.81;5113076;28;20187;-61
2023/04/23 09:22:08;;;;;;;6.97;4.63;;;;;;;19.15;79.97;150852.16;5112692;28;20200;-63
2023/04/23 09:24:36;;;;;;;9.97;4.60;;;;;;;19.16;77.17;150854.72;5112842;28;20203;-63
2023/04/23 09:27:06;;;;;;;6.43;4.13;;;;;;;18.94;76.02;150797.44;5113027;28;20802;-62
2023/04/23 09:29:32;;;;;;;4.60;4.20;;;;;;;19.15;79.29;150852.16;5113233;28;20546;-63
2023/04/23 09:32:08;;;;;;;4.80;4.07;;;;;;;19.09;76.71;150835.63;5112464;28;20183;-63
2023/04/23 09:34:36;;;;;;;4.87;3.83;;;;;;;19.39;76.34;150910.72;5112503;28;20183;-62
2023/04/23 09:37:06;;;;;;;7.03;4.57;;;;;;;19.37;86.17;150905.59;5112390;28;20202;-62
2023/04/23 09:39:34;;;;;;;4.83;4.30;;;;;;;19.07;98.07;150831.78;5112429;28;20183;-62
2023/04/23 09:42:07;;;;;;;6.37;4.00;;;;;;;18.79;100.00;150760.56;5112235;28;20223;-62
2023/04/23 09:44:34;;;;;;;6.43;4.20;;;;;;;18.27;100.00;150629.53;5112365;28;20180;-62
2023/04/23 09:47:13;;;;;;;4.63;4.30;;;;;;;18.25;100.00;150624.41;5112269;28;20633;-61
2023/04/23 09:49:47;;;;;;;5.80;5.40;;;;;;;18.16;100.00;150601.56;5112226;28;20179;-61
2023/04/23 09:52:14;;;;;;;6.10;5.07;;;;;;;18.29;100.00;150633.34;5094727;28;20211;-62
2023/04/23 09:54:42;;;;;;;6.17;5.03;;;;;;;18.20;100.00;150611.75;5112302;28;20187;-62
2023/04/23 09:57:11;;;;;;;5.87;5.47;;;;;;;17.80;100.00;150512.56;5111726;28;20195;-61
2023/04/23 09:59:38;;;;;;;5.70;5.03;;;;;;;17.63;100.00;150468.06;5112487;28;20187;-61
2023/04/23 10:02:07;;;;;;;7.20;5.00;;;;;;;17.53;100.00;150442.59;5111944;28;20204;-62
2023/04/23 10:04:35;;;;;;;5.43;5.00;;;;;;;17.12;100.00;150340.97;5112130;28;20183;-61
2023/04/23 10:07:12;;;;;;;5.90;5.17;;;;;;;17.26;100.00;150375.28;5111970;28;20183;-61
2023/04/23 10:09:41;;;;;;;5.17;4.67;;;;;;;17.43;100.00;150418.47;5112308;28;20198;-61
2023/04/23 10:12:10;;;;;;;5.00;4.60;;;;;;;17.48;100.00;150431.19;5112363;28;20575;-62
2023/04/23 10:14:39;;;;;;;5.50;4.57;;;;;;;17.68;100.00;150480.78;5112014;28;20223;-62
2023/04/23 10:17:07;;;;;;;4.87;4.43;;;;;;;17.92;100.00;150540.50;5112136;28;20192;-62
2023/04/23 10:19:39;;;;;;;6.97;4.73;;;;;;;18.17;100.00;150605.34;5112250;28;20621;-61
2023/04/23 10:22:10;;;;;;;5.53;5.10;;;;;;;18.36;100.00;150652.41;5112042;28;20569;-62
2023/04/23 10:24:40;;;;;;;6.30;5.20;;;;;;;18.27;100.00;150630.81;5111834;28;20270;-61
2023/04/23 10:27:15;;;;;;;6.63;5.00;;;;;;;18.17;100.00;150605.34;5111847;28;20183;-61
2023/04/23 10:29:42;;;;;;;5.50;5.10;;;;;;;17.34;100.00;150396.88;5111812;28;20179;-61
2023/04/23 10:32:09;;;;;;;5.33;4.83;;;;;;;17.44;100.00;150421.00;5112107;28;20179;-62
2023/04/23 10:34:36;;;;;;;5.53;5.20;;;;;;;17.46;100.00;150424.81;5111748;28;20232;-62
2023/04/23 10:37:03;;;;;;;5.60;4.60;;;;;;;17.53;100.00;150442.59;5111652;28;20183;-62
2023/04/23 10:39:32;;;;;;;7.53;5.30;;;;;;;17.66;100.00;150476.97;5111723;28;20271;-62
2023/04/23 10:42:00;;;;;;;7.00;5.77;;;;;;;17.78;100.00;150507.47;5111897;28;20203;-61
2023/04/23 10:44:34;;;;;;;5.70;5.30;;;;;;;17.86;100.00;150525.28;5111960;28;20183;-62
2023/04/23 10:47:01;;;;;;;6.30;5.33;;;;;;;17.52;100.00;150441.34;5111672;28;20210;-61
2023/04/23 10:49:31;;;;;;;6.03;5.50;;;;;;;17.58;100.00;150456.63;5111647;28;20203;-61
2023/04/23 10:52:02;;;;;;;4.50;4.10;;;;;;;17.62;100.00;150466.81;5111916;28;20184;-63
2023/04/23 10:54:30;;;;;;;5.73;4.00;;;;;;;17.39;91.12;150407.03;5111833;28;20180;-61
2023/04/23 10:57:03;;;;;;;7.00;3.90;;;;;;;17.48;92.69;150431.19;5111523;28;20259;-62
2023/04/23 10:59:31;;;;;;;4.63;4.23;;;;;;;17.22;94.50;150365.13;5111746;28;20685;-61
2023/04/23 11:02:06;;;;;;;7.43;5.50;;;;;;;17.32;100.00;150391.78;5111673;28;20660;-61
2023/04/23 11:04:34;;;;;;;10.17;4.90;;;;;;;17.47;100.00;150428.66;5111706;28;20663;-61
2023/04/23 11:07:06;;;;;;;14.40;5.23;;;;;;;17.51;100.00;150437.53;5111687;28;20619;-62
2023/04/23 11:09:41;;;;;;;9.13;4.60;;;;;;;17.23;100.00;150367.63;5114941;28;20709;-61
2023/04/23 11:12:11;;;;;;;7.03;4.93;;;;;;;17.63;100.00;150468.06;5115283;28;20194;-61
2023/04/23 11:14:43;;;;;;;8.20;5.00;;;;;;;17.93;100.00;150544.34;5115146;28;20223;-62
2023/04/23 11:17:16;;;;;;;6.53;4.53;;;;;;;18.08;95.76;150582.47;5115195;28;20677;-62
2023/04/23 11:20:10;;;;;;;11.80;3.93;;;;;;;17.96;91.05;150550.69;5115056;28;20190;-61